createdAt,value
2022-12-13T00:01:47.000Z,99.90
2022-12-13T00:04:14.328Z,99.90
2022-12-13T00:06:41.539Z,99.90
2022-12-13T00:09:08.732Z,99.90
2022-12-13T00:11:36.048Z,99.90
2022-12-13T00:14:03.146Z,99.90
2022-12-13T00:16:32.082Z,99.90
2022-12-13T00:19:01.007Z,99.90
2022-12-13T00:21:33.168Z,99.90
2022-12-13T00:24:01.189Z,99.90
2022-12-13T00:26:32.868Z,99.90
2022-12-13T00:29:01.586Z,99.90
2022-12-13T00:34:19.559Z,99.90
2022-12-13T00:36:46.967Z,99.90
2022-12-13T00:39:16.797Z,99.90
2022-12-13T00:41:44.957Z,99.90
2022-12-13T00:44:13.458Z,99.90
2022-12-13T00:46:42.054Z,99.90
2022-12-13T00:49:10.774Z,99.90
2022-12-13T00:51:38.666Z,99.90
2022-12-13T00:54:06.815Z,99.90
2022-12-13T00:56:34.308Z,99.90
2022-12-13T00:59:01.809Z,99.90
2022-12-13T01:01:33.696Z,99.90
2022-12-13T01:04:02.744Z,99.90
2022-12-13T01:06:39.486Z,99.90
2022-12-13T01:09:12.138Z,99.90
2022-12-13T01:11:39.418Z,99.90
2022-12-13T01:14:06.578Z,99.90
2022-12-13T01:16:33.837Z,99.90
2022-12-13T01:19:01.030Z,99.90
2022-12-13T01:21:29.853Z,99.90
2022-12-13T01:24:02.360Z,99.90
2022-12-13T01:26:30.128Z,99.90
2022-12-13T01:28:57.527Z,99.90
2022-12-13T01:31:25.067Z,99.90
2022-12-13T01:33:52.137Z,99.90
2022-12-13T01:36:27.065Z,99.90
2022-12-13T01:38:54.342Z,99.90
2022-12-13T01:41:27.698Z,99.90
2022-12-13T01:44:03.827Z,99.90
2022-12-13T01:46:35.502Z,99.90
2022-12-13T01:49:19.688Z,99.90
2022-12-13T01:52:03.166Z,99.90
2022-12-13T01:54:36.798Z,99.90
2022-12-13T01:57:07.486Z,99.90
2022-12-13T01:59:36.797Z,99.90
2022-12-13T02:02:05.359Z,99.90
2022-12-13T02:04:44.660Z,99.90
2022-12-13T02:07:22.878Z,99.90
2022-12-13T02:09:57.105Z,99.90
2022-12-13T02:12:32.727Z,99.90
2022-12-13T02:15:02.818Z,99.90
2022-12-13T02:17:51.474Z,99.90
2022-12-13T02:20:53.858Z,99.90
2022-12-13T02:23:58.470Z,99.90
2022-12-13T02:26:34.307Z,99.90
2022-12-13T02:29:39.578Z,99.90
2022-12-13T02:32:35.897Z,99.90
2022-12-13T02:35:10.315Z,99.90
2022-12-13T02:37:43.412Z,99.90
2022-12-13T02:40:31.506Z,99.90
2022-12-13T02:43:04.788Z,99.90
2022-12-13T02:45:41.479Z,99.90
2022-12-13T02:48:11.615Z,99.90
2022-12-13T02:50:39.798Z,99.90
2022-12-13T02:53:09.091Z,99.90
2022-12-13T02:55:39.731Z,99.90
2022-12-13T02:58:07.213Z,99.90
2022-12-13T03:00:52.674Z,99.90
2022-12-13T03:03:50.513Z,99.90
2022-12-13T03:06:43.599Z,99.90
2022-12-13T03:09:29.572Z,99.90
2022-12-13T03:12:27.579Z,99.90
2022-12-13T03:15:23.713Z,99.90
2022-12-13T03:18:15.555Z,99.90
2022-12-13T03:20:55.015Z,99.90
2022-12-13T03:23:23.298Z,99.90
2022-12-13T03:25:56.472Z,99.90
2022-12-13T03:28:24.492Z,99.90
2022-12-13T03:30:51.568Z,99.90
2022-12-13T03:33:19.061Z,99.90
2022-12-13T03:35:46.701Z,99.90
2022-12-13T03:38:21.732Z,99.90
2022-12-13T03:40:57.241Z,99.90
2022-12-13T03:43:25.018Z,99.90
2022-12-13T03:45:53.581Z,99.90
2022-12-13T03:48:22.928Z,99.90
2022-12-13T03:50:52.570Z,99.90
2022-12-13T03:53:32.370Z,99.90
2022-12-13T03:56:06.360Z,99.90
2022-12-13T03:58:37.779Z,99.90
2022-12-13T04:01:07.807Z,99.90
2022-12-13T04:03:36.360Z,99.90
2022-12-13T04:06:04.569Z,99.90
2022-12-13T04:08:31.910Z,99.90
2022-12-13T04:10:59.053Z,99.90
2022-12-13T04:13:35.009Z,99.90
2022-12-13T04:16:03.132Z,99.90
2022-12-13T04:18:30.570Z,99.90
2022-12-13T04:20:58.277Z,99.90
2022-12-13T04:23:25.374Z,99.90
2022-12-13T04:25:52.382Z,99.90
2022-12-13T04:28:22.222Z,99.90
2022-12-13T04:30:53.961Z,99.90
2022-12-13T04:33:24.703Z,99.90
2022-12-13T04:35:52.202Z,99.90
2022-12-13T04:38:20.278Z,99.90
2022-12-13T04:40:47.469Z,99.90
2022-12-13T04:43:14.688Z,99.90
2022-12-13T04:45:42.230Z,99.90
2022-12-13T04:48:09.489Z,99.90
2022-12-13T04:50:37.192Z,99.90
2022-12-13T04:53:04.341Z,99.90
2022-12-13T04:55:31.394Z,99.90
2022-12-13T04:57:58.488Z,99.90
2022-12-13T05:00:26.033Z,99.90
2022-12-13T05:02:53.090Z,99.90
2022-12-13T05:05:20.124Z,99.90
2022-12-13T05:07:47.254Z,99.90
2022-12-13T05:10:35.707Z,99.90
2022-12-13T05:13:02.762Z,99.90
2022-12-13T05:15:32.783Z,99.90
2022-12-13T05:18:10.704Z,99.90
2022-12-13T05:20:39.890Z,99.90
2022-12-13T05:23:07.476Z,99.90
2022-12-13T05:25:37.230Z,99.90
2022-12-13T05:28:26.827Z,99.90
2022-12-13T05:30:53.469Z,99.90
2022-12-13T05:33:22.066Z,99.90
2022-12-13T05:35:49.122Z,99.90
2022-12-13T05:38:16.250Z,99.90
2022-12-13T05:40:43.523Z,99.90
2022-12-13T05:43:21.523Z,99.90
2022-12-13T05:45:49.964Z,99.90
2022-12-13T05:48:24.933Z,99.90
2022-12-13T05:51:09.957Z,99.90
2022-12-13T05:53:40.524Z,99.90
2022-12-13T05:56:08.319Z,99.90
2022-12-13T05:58:36.539Z,99.90
2022-12-13T06:01:12.978Z,99.90
2022-12-13T06:03:41.148Z,99.90
2022-12-13T06:06:10.365Z,99.90
2022-12-13T06:08:37.800Z,99.90
2022-12-13T06:11:10.284Z,99.90
2022-12-13T06:13:44.135Z,99.90
2022-12-13T06:16:22.822Z,99.90
2022-12-13T06:18:59.395Z,99.90
2022-12-13T06:21:40.637Z,99.90
2022-12-13T06:24:17.399Z,99.90
2022-12-13T06:26:45.562Z,99.90
2022-12-13T06:29:23.905Z,99.90
2022-12-13T06:32:03.297Z,99.90
2022-12-13T06:34:33.998Z,99.90
2022-12-13T06:37:04.011Z,99.90
2022-12-13T06:39:34.010Z,99.90
2022-12-13T06:42:06.750Z,99.90
2022-12-13T06:44:34.851Z,99.90
2022-12-13T06:47:10.280Z,99.90
2022-12-13T06:49:40.772Z,99.90
2022-12-13T06:52:11.850Z,99.90
2022-12-13T06:54:39.247Z,99.90
2022-12-13T06:57:06.318Z,99.90
2022-12-13T06:59:33.383Z,99.90
2022-12-13T07:02:03.226Z,99.90
2022-12-13T07:04:31.694Z,99.90
2022-12-13T07:07:01.709Z,99.90
2022-12-13T07:09:33.198Z,99.90
2022-12-13T07:12:00.417Z,99.90
2022-12-13T07:14:27.698Z,99.90
2022-12-13T07:17:02.885Z,99.90
2022-12-13T07:19:35.241Z,99.90
2022-12-13T07:22:06.387Z,99.90
2022-12-13T07:24:35.048Z,99.90
2022-12-13T07:27:03.598Z,99.90
2022-12-13T07:29:30.633Z,99.90
2022-12-13T07:32:00.991Z,99.90
2022-12-13T07:34:29.790Z,99.90
2022-12-13T07:36:56.875Z,99.90
2022-12-13T07:39:28.594Z,99.90
2022-12-13T07:41:56.670Z,99.90
2022-12-13T07:44:24.864Z,99.90
2022-12-13T07:46:52.234Z,99.90
2022-12-13T07:49:19.694Z,99.90
2022-12-13T07:51:47.703Z,99.90
2022-12-13T07:54:15.011Z,99.90
2022-12-13T07:56:42.140Z,99.90
2022-12-13T07:59:10.663Z,99.90
2022-12-13T08:01:37.889Z,99.30
2022-12-13T08:04:05.417Z,98.10
2022-12-13T08:06:37.874Z,97.30
2022-12-13T08:09:06.044Z,96.50
2022-12-13T08:11:33.550Z,96.40
2022-12-13T08:14:00.754Z,95.20
2022-12-13T08:16:30.169Z,94.90
2022-12-13T08:19:02.463Z,94.10
2022-12-13T08:21:56.869Z,93.20
2022-12-13T08:24:29.432Z,92.50
2022-12-13T08:27:01.545Z,92.50
2022-12-13T08:29:34.142Z,91.40
2022-12-13T08:32:05.393Z,91.20
2022-12-13T08:34:32.389Z,90.80
2022-12-13T08:37:01.683Z,90.90
2022-12-13T08:39:35.282Z,90.50
2022-12-13T08:42:14.914Z,90.20
2022-12-13T08:44:48.953Z,89.50
2022-12-13T08:47:22.925Z,90.10
2022-12-13T08:49:51.189Z,90.00
2022-12-13T08:52:19.586Z,90.90
2022-12-13T08:54:46.649Z,91.00
2022-12-13T08:57:13.615Z,91.00
2022-12-13T08:59:40.792Z,91.30
2022-12-13T09:02:13.753Z,91.60
2022-12-13T09:04:40.863Z,91.20
2022-12-13T09:07:07.989Z,91.60
2022-12-13T09:09:35.029Z,91.40
2022-12-13T09:12:10.764Z,91.30
2022-12-13T09:14:45.334Z,91.80
2022-12-13T09:17:24.147Z,92.40
2022-12-13T09:19:58.516Z,92.30
2022-12-13T09:22:33.300Z,92.40
2022-12-13T09:25:03.034Z,92.60
2022-12-13T09:27:39.997Z,92.20
2022-12-13T09:30:10.906Z,92.30
2022-12-13T09:32:37.903Z,92.60
2022-12-13T09:35:05.180Z,92.40
2022-12-13T09:37:32.260Z,92.60
2022-12-13T09:39:59.268Z,92.00
2022-12-13T09:42:48.242Z,91.50
2022-12-13T09:45:22.754Z,91.20
2022-12-13T09:48:01.323Z,91.60
2022-12-13T09:50:37.529Z,91.20
2022-12-13T09:53:12.138Z,91.10
2022-12-13T09:55:51.249Z,90.60
2022-12-13T09:58:21.356Z,90.60
2022-12-13T10:00:51.744Z,90.30
2022-12-13T10:03:21.013Z,90.30
2022-12-13T10:06:15.184Z,90.20
2022-12-13T10:08:58.372Z,90.10
2022-12-13T10:11:31.278Z,90.00
2022-12-13T10:14:05.574Z,89.50
2022-12-13T10:16:38.429Z,88.60
2022-12-13T10:19:35.750Z,88.40
2022-12-13T10:22:13.211Z,88.30
2022-12-13T10:25:00.919Z,87.90
2022-12-13T10:27:43.524Z,87.90
2022-12-13T10:30:28.908Z,86.80
2022-12-13T10:32:56.344Z,83.90
2022-12-13T10:35:27.769Z,77.50
2022-12-13T10:37:56.883Z,69.80
2022-12-13T10:40:35.094Z,61.30
2022-12-13T10:43:27.592Z,56.10
2022-12-13T10:46:00.345Z,55.90
2022-12-13T10:48:52.128Z,53.10
2022-12-13T10:51:21.933Z,52.10
2022-12-13T10:53:53.563Z,52.80
2022-12-13T10:56:23.964Z,51.60
2022-12-13T10:59:22.788Z,50.70
2022-12-13T11:01:50.144Z,48.50
2022-12-13T11:04:25.398Z,48.30
2022-12-13T11:06:54.408Z,47.90
2022-12-13T11:09:38.713Z,48.40
2022-12-13T11:12:16.479Z,47.70
2022-12-13T11:15:06.509Z,51.50
2022-12-13T11:17:44.696Z,52.40
2022-12-13T11:20:31.775Z,54.20
2022-12-13T11:23:26.112Z,54.60
2022-12-13T11:26:11.448Z,57.60
2022-12-13T11:28:59.643Z,59.80
2022-12-13T11:31:57.442Z,60.40
2022-12-13T11:34:56.946Z,62.80
2022-12-13T11:37:33.531Z,64.50
2022-12-13T11:40:05.134Z,64.70
2022-12-13T11:42:44.451Z,66.00
2022-12-13T11:45:22.813Z,67.20
2022-12-13T11:48:09.383Z,68.00
2022-12-13T11:50:39.261Z,69.00
2022-12-13T11:53:41.691Z,69.10
2022-12-13T11:56:33.443Z,70.00
2022-12-13T11:59:17.369Z,70.50
2022-12-13T12:02:40.930Z,71.20
2022-12-13T12:05:28.688Z,71.20
2022-12-13T12:08:31.881Z,71.10
2022-12-13T12:11:02.633Z,71.80
2022-12-13T12:13:50.369Z,71.80
2022-12-13T12:16:36.137Z,72.40
2022-12-13T12:19:19.453Z,73.10
2022-12-13T12:22:41.744Z,73.70
2022-12-13T12:25:23.082Z,74.20
2022-12-13T12:28:14.811Z,74.70
2022-12-13T12:30:59.371Z,75.50
2022-12-13T12:33:58.276Z,75.00
2022-12-13T12:36:44.155Z,75.30
2022-12-13T12:39:42.108Z,75.60
2022-12-13T12:43:11.848Z,76.10
2022-12-13T12:46:00.168Z,75.50
2022-12-13T12:49:00.474Z,76.00
2022-12-13T12:51:46.340Z,76.10
2022-12-13T12:54:32.746Z,76.40
2022-12-13T12:57:15.080Z,76.00
2022-12-13T12:59:52.759Z,76.50
2022-12-13T13:02:32.928Z,77.30
2022-12-13T13:05:24.008Z,77.10
2022-12-13T13:07:59.722Z,77.40
2022-12-13T13:10:28.540Z,77.20
2022-12-13T13:13:11.701Z,77.10
2022-12-13T13:15:40.168Z,77.00
2022-12-13T13:18:46.113Z,77.00
2022-12-13T13:21:31.794Z,77.50
2022-12-13T13:24:01.588Z,77.90
2022-12-13T13:26:36.527Z,78.20
2022-12-13T13:29:37.917Z,77.20
2022-12-13T13:32:29.187Z,76.90
2022-12-13T13:35:33.165Z,76.90
2022-12-13T13:38:04.183Z,77.10
2022-12-13T13:40:35.718Z,77.00
2022-12-13T13:43:05.722Z,77.90
2022-12-13T13:45:59.061Z,78.50
2022-12-13T13:48:58.469Z,79.10
2022-12-13T13:51:49.439Z,79.40
2022-12-13T13:54:43.982Z,79.60
2022-12-13T13:57:10.941Z,80.00
2022-12-13T13:59:53.008Z,80.50
2022-12-13T14:02:57.971Z,81.00
2022-12-13T14:06:13.808Z,80.80
2022-12-13T14:09:00.902Z,81.20
2022-12-13T14:11:36.894Z,81.30
2022-12-13T14:14:22.924Z,81.80
2022-12-13T14:17:21.375Z,82.00
2022-12-13T14:20:16.528Z,82.20
2022-12-13T14:22:59.103Z,82.70
2022-12-13T14:25:52.582Z,83.00
2022-12-13T14:28:25.904Z,83.40
2022-12-13T14:30:57.568Z,83.20
2022-12-13T14:33:26.617Z,83.10
2022-12-13T14:36:01.880Z,83.40
2022-12-13T14:38:31.144Z,83.80
2022-12-13T14:41:01.939Z,84.00
2022-12-13T14:43:32.895Z,84.70
2022-12-13T14:46:02.833Z,85.30
2022-12-13T14:48:56.037Z,85.50
2022-12-13T14:51:34.409Z,86.10
2022-12-13T14:54:04.127Z,86.70
2022-12-13T14:56:31.363Z,86.70
2022-12-13T14:59:00.657Z,86.40
2022-12-13T15:01:31.700Z,86.90
2022-12-13T15:04:26.758Z,87.80
2022-12-13T15:07:03.118Z,87.90
2022-12-13T15:09:31.229Z,89.40
2022-12-13T15:12:15.095Z,90.70
2022-12-13T15:14:51.142Z,90.60
2022-12-13T15:17:35.986Z,90.70
2022-12-13T15:20:31.469Z,90.80
2022-12-13T15:23:12.525Z,90.90
2022-12-13T15:25:42.898Z,91.40
2022-12-13T15:28:18.162Z,91.50
2022-12-13T15:30:48.954Z,91.50
2022-12-13T15:33:33.155Z,91.60
2022-12-13T15:36:15.658Z,91.90
2022-12-13T15:38:45.711Z,92.10
2022-12-13T15:41:18.813Z,92.50
2022-12-13T15:43:52.467Z,92.70
2022-12-13T15:46:28.202Z,93.00
2022-12-13T15:48:57.515Z,93.10
2022-12-13T15:51:28.628Z,93.80
2022-12-13T15:54:09.850Z,94.10
2022-12-13T15:56:39.292Z,94.00
2022-12-13T15:59:24.172Z,94.20
2022-12-13T16:01:57.876Z,94.00
2022-12-13T16:04:32.942Z,94.60
2022-12-13T16:07:01.304Z,94.90
2022-12-13T16:09:34.949Z,95.60
2022-12-13T16:12:07.076Z,95.70
2022-12-13T16:14:48.765Z,95.50
2022-12-13T16:17:26.739Z,95.60
2022-12-13T16:19:56.177Z,95.30
2022-12-13T16:22:24.218Z,96.00
2022-12-13T16:24:52.317Z,96.00
2022-12-13T16:27:19.762Z,95.80
2022-12-13T16:29:46.825Z,96.10
2022-12-13T16:32:14.008Z,96.40
2022-12-13T16:34:41.077Z,97.10
2022-12-13T16:37:26.136Z,96.90
2022-12-13T16:39:55.410Z,96.60
2022-12-13T16:42:26.233Z,96.50
2022-12-13T16:45:17.731Z,96.50
2022-12-13T16:47:48.332Z,96.80
2022-12-13T16:50:19.311Z,97.00
2022-12-13T16:52:47.221Z,97.30
2022-12-13T16:55:15.428Z,97.10
2022-12-13T16:57:42.864Z,96.90
2022-12-13T17:00:13.118Z,96.90
2022-12-13T17:02:42.010Z,97.10
2022-12-13T17:05:09.604Z,97.00
2022-12-13T17:07:37.146Z,97.50
2022-12-13T17:10:05.257Z,97.40
2022-12-13T17:12:33.413Z,97.50
2022-12-13T17:15:02.111Z,97.40
2022-12-13T17:17:29.630Z,97.40
2022-12-13T17:19:57.722Z,97.60
2022-12-13T17:22:29.422Z,97.80
2022-12-13T17:24:57.614Z,98.00
2022-12-13T17:27:25.507Z,98.50
2022-12-13T17:29:54.276Z,98.60
2022-12-13T17:32:23.536Z,98.90
2022-12-13T17:34:54.684Z,98.70
2022-12-13T17:37:22.530Z,98.60
2022-12-13T17:39:49.865Z,99.20
2022-12-13T17:42:17.985Z,99.80
2022-12-13T17:44:45.285Z,99.60
2022-12-13T17:47:13.648Z,99.80
2022-12-13T17:49:41.096Z,99.60
2022-12-13T17:52:08.421Z,99.70
2022-12-13T17:54:36.737Z,99.90
2022-12-13T17:57:04.406Z,99.90
2022-12-13T17:59:31.534Z,99.90
2022-12-13T18:01:59.044Z,99.90
2022-12-13T18:04:26.853Z,99.90
2022-12-13T18:06:54.708Z,99.90
2022-12-13T18:09:22.558Z,99.90
2022-12-13T18:11:50.321Z,99.90
2022-12-13T18:14:17.856Z,99.90
2022-12-13T18:16:45.295Z,99.90
2022-12-13T18:19:15.251Z,99.90
2022-12-13T18:21:48.945Z,99.90
2022-12-13T18:24:17.926Z,99.90
2022-12-13T18:26:47.517Z,99.90
2022-12-13T18:29:16.775Z,99.90
2022-12-13T18:31:44.524Z,99.90
2022-12-13T18:34:13.498Z,99.90
2022-12-13T18:36:41.591Z,99.90
2022-12-13T18:39:11.651Z,99.90
2022-12-13T18:41:41.414Z,99.90
2022-12-13T18:44:11.594Z,99.90
2022-12-13T18:46:43.418Z,99.90
2022-12-13T18:49:14.510Z,99.90
2022-12-13T18:51:42.683Z,99.90
2022-12-13T18:54:10.535Z,99.90
2022-12-13T18:56:40.154Z,99.90
2022-12-13T18:59:22.009Z,99.90
2022-12-13T19:01:50.644Z,99.90
2022-12-13T19:04:19.130Z,99.90
2022-12-13T19:06:48.617Z,99.90
2022-12-13T19:09:17.328Z,99.90
2022-12-13T19:11:46.789Z,99.90
2022-12-13T19:14:15.198Z,99.90
2022-12-13T19:16:44.896Z,99.90
2022-12-13T19:19:16.681Z,99.90
2022-12-13T19:21:45.291Z,99.90
2022-12-13T19:24:18.645Z,99.90
2022-12-13T19:26:49.781Z,99.90
2022-12-13T19:29:18.415Z,99.90
2022-12-13T19:31:50.349Z,99.90
2022-12-13T19:34:20.624Z,99.90
2022-12-13T19:36:49.347Z,99.90
2022-12-13T19:39:18.308Z,99.90
2022-12-13T19:41:47.576Z,99.90
2022-12-13T19:44:16.365Z,99.90
2022-12-13T19:46:46.414Z,99.90
2022-12-13T19:49:17.434Z,99.90
2022-12-13T19:51:45.948Z,99.90
2022-12-13T19:54:15.391Z,99.90
2022-12-13T19:56:46.815Z,99.90
2022-12-13T19:59:15.511Z,99.90
2022-12-13T20:01:47.475Z,99.90
2022-12-13T20:04:21.374Z,99.90
2022-12-13T20:06:51.229Z,99.90
2022-12-13T20:09:19.350Z,99.90
2022-12-13T20:11:47.737Z,99.90
2022-12-13T20:14:15.992Z,99.90
2022-12-13T20:16:44.516Z,99.90
2022-12-13T20:19:13.105Z,99.90
2022-12-13T20:21:46.056Z,99.90
2022-12-13T20:24:14.710Z,99.90
2022-12-13T20:26:43.516Z,99.90
2022-12-13T20:29:15.037Z,99.90
2022-12-13T20:31:48.262Z,99.90
2022-12-13T20:34:17.380Z,99.90
2022-12-13T20:36:50.118Z,99.90
2022-12-13T20:39:18.334Z,99.90
2022-12-13T20:41:46.828Z,99.90
2022-12-13T20:44:15.357Z,99.90
2022-12-13T20:46:43.948Z,99.90
2022-12-13T20:49:12.817Z,99.90
2022-12-13T20:51:42.552Z,99.90
2022-12-13T20:54:11.326Z,99.90
2022-12-13T20:56:40.024Z,99.90
2022-12-13T20:59:11.089Z,99.90
2022-12-13T21:01:44.006Z,99.90
2022-12-13T21:04:17.456Z,99.90
2022-12-13T21:06:45.048Z,99.90
2022-12-13T21:09:13.433Z,99.90
2022-12-13T21:11:47.386Z,99.90
2022-12-13T21:14:22.489Z,99.90
2022-12-13T21:17:02.916Z,99.90
2022-12-13T21:19:39.455Z,99.90
2022-12-13T21:22:07.841Z,99.90
2022-12-13T21:24:35.571Z,99.90
2022-12-13T21:27:03.111Z,99.90
2022-12-13T21:29:30.376Z,99.90
2022-12-13T21:31:57.777Z,99.90
2022-12-13T21:34:26.812Z,99.90
2022-12-13T21:36:54.096Z,99.90
2022-12-13T21:39:24.379Z,99.90
2022-12-13T21:41:52.284Z,99.90
2022-12-13T21:44:20.254Z,99.90
2022-12-13T21:47:11.898Z,99.90
2022-12-13T21:49:35.485Z,99.90
2022-12-13T21:52:02.670Z,99.90
2022-12-13T21:54:29.750Z,99.90
2022-12-13T21:57:15.934Z,99.90
2022-12-13T21:59:43.548Z,99.90
2022-12-13T22:02:19.139Z,99.90
2022-12-13T22:04:54.006Z,99.90
2022-12-13T22:07:32.200Z,99.90
2022-12-13T22:10:02.896Z,99.90
2022-12-13T22:12:34.400Z,99.90
2022-12-13T22:15:01.553Z,99.90
2022-12-13T22:17:35.039Z,99.90
2022-12-13T22:20:08.861Z,99.90
2022-12-13T22:22:37.459Z,99.90
2022-12-13T22:25:05.666Z,99.90
2022-12-13T22:27:32.882Z,99.90
2022-12-13T22:30:01.461Z,99.90
2022-12-13T22:32:30.505Z,99.90
2022-12-13T22:34:57.592Z,99.90
2022-12-13T22:37:24.979Z,99.90
2022-12-13T22:39:52.368Z,99.90
2022-12-13T22:42:20.010Z,99.90
2022-12-13T22:44:47.793Z,99.90
2022-12-13T22:47:15.007Z,99.90
2022-12-13T22:49:42.271Z,99.90
2022-12-13T22:52:09.726Z,99.90
2022-12-13T22:54:36.910Z,99.90
2022-12-13T22:57:04.311Z,99.90
2022-12-13T22:59:31.559Z,99.90
2022-12-13T23:02:02.696Z,99.90
2022-12-13T23:04:33.049Z,99.90
2022-12-13T23:07:00.210Z,99.90
2022-12-13T23:09:27.390Z,99.90
2022-12-13T23:12:12.843Z,99.90
2022-12-13T23:14:40.555Z,99.90
2022-12-13T23:17:07.776Z,99.90
2022-12-13T23:19:49.537Z,99.90
2022-12-13T23:22:24.788Z,99.90
2022-12-13T23:24:52.988Z,99.90
2022-12-13T23:27:22.539Z,99.90
2022-12-13T23:29:49.828Z,99.90
2022-12-13T23:32:17.021Z,99.90
2022-12-13T23:34:44.192Z,99.90
2022-12-13T23:37:11.792Z,99.90
2022-12-13T23:39:38.881Z,99.90
2022-12-13T23:42:06.385Z,99.90
2022-12-13T23:44:33.412Z,99.90
2022-12-13T23:47:00.540Z,99.90
2022-12-13T23:49:28.193Z,99.90
2022-12-13T23:51:55.369Z,99.90
2022-12-13T23:54:22.535Z,99.90
2022-12-13T23:56:49.645Z,99.90
2022-12-13T23:59:16.813Z,99.90
